Airfield :
LOGIN :

Register | Disclaimer

   EN    FR    IT 

 










Legend :    VFR   Marginal VFR   IFR   Intensive IFR   Very Intensive IFR
Visi :
Ceiling :
>= 8 km
>= 3000ft
5 to 8 km
1000 to 3000 ft
1500m to 5 km
500 to 1000 ft
800 to 1500m
200 to 500 ft
< 800m
< 200 ft
Symbols :   Thunderstorms  Fog  Heavy snow  Heavy precipitations  Wind > 20 kt
SIGMETs :     Misc.  Thunderstorms  Icing  Turbulence  Mountain Waves  Volcanic Ashes







- Airport Elevation : 407 ft


EGDM - MoD Boscombe Down Amesbury

CURRENT METAR :
  • 211150Z 31010KT 9999 FEW006 BKN009 BKN020 19/18 Q1021 REDZ GRN NOSIG

EXPIRED METARs :
  • 211140Z 30009KT 9999 FEW004 BKN006 BKN020 19/18 Q1021 YLO1 BECMG BKN010 GRN
  • 211124Z 31006KT 9999 5000SE -DZ OVC003 18/18 Q1021 YLO2 BECMG 9999 NSW BKN005 YLO1
  • 211050Z 30007KT 5000 -DZ BKN003 OVC010 19/18 Q1021 YLO2 BECMG 9999 NSW BKN005 YLO1
  • 210950Z 30004KT 4000 -DZ BKN003 OVC008 18/18 Q1021 YLO2 BECMG 9999 NSW BKN005 YLO1
  • 210850Z 28006KT 4000 -DZ BKN003 OVC010 18/18 Q1021 YLO2 TEMPO 3000 DZ YLO2

TAF TAF EGDM
Valid from the 21 at 12:00 until the 21 at 18:00 UTC


211049Z 2112/2118 26005KT 9999 BKN005
TEMPO 2112/2115 3000 -DZ
PROB40
TEMPO 2112/2113 BKN004
BECMG 2113/2115 BKN008
No reported NOTAMs for that airfield.



MET'MAP, your aeronautical weather chart ! - Copyright ORBIFLY December 2007 - Disclaimer

ORBIFLY MET'MAP TEAM :

Programming & Development : Alexandra Zaïnal
Concept & Development : Baudouin d'Aumeries
Co-Development & Prog : Marc-Olivier Méhu
Technical & hardware support : Manuel Goepfert

Contact : metmap@orbifly.com




SOURCES & CREDITS :

   NOAA